createdAt,value
2019-03-06T00:02:09.235Z,7.40
2019-03-06T00:04:38.326Z,7.40
2019-03-06T00:07:08.575Z,7.40
2019-03-06T00:09:37.820Z,7.50
2019-03-06T00:12:06.754Z,7.40
2019-03-06T00:14:37.005Z,7.40
2019-03-06T00:17:07.922Z,7.40
2019-03-06T00:19:37.039Z,7.40
2019-03-06T00:22:07.586Z,7.40
2019-03-06T00:24:38.371Z,7.40
2019-03-06T00:27:07.815Z,7.40
2019-03-06T00:29:37.150Z,7.40
2019-03-06T00:32:06.249Z,7.40
2019-03-06T00:34:35.789Z,7.40
2019-03-06T00:37:04.823Z,7.40
2019-03-06T00:39:42.854Z,7.40
2019-03-06T00:42:11.888Z,7.40
2019-03-06T00:44:43.769Z,7.40
2019-03-06T00:47:12.602Z,7.40
2019-03-06T00:49:41.420Z,7.40
2019-03-06T00:52:10.392Z,7.40
2019-03-06T00:54:39.612Z,7.40
2019-03-06T00:57:08.786Z,7.40
2019-03-06T00:59:37.644Z,7.40
2019-03-06T01:02:09.243Z,7.40
2019-03-06T01:04:38.283Z,7.40
2019-03-06T01:07:08.030Z,7.40
2019-03-06T01:09:37.437Z,7.50
2019-03-06T01:12:09.314Z,7.50
2019-03-06T01:14:38.221Z,7.50
2019-03-06T01:17:07.177Z,7.50
2019-03-06T01:19:37.195Z,7.50
2019-03-06T01:22:06.258Z,7.50
2019-03-06T01:24:35.935Z,7.50
2019-03-06T01:27:05.825Z,7.50
2019-03-06T01:29:34.658Z,7.50
2019-03-06T01:32:03.690Z,7.50
2019-03-06T01:34:47.300Z,7.50
2019-03-06T01:40:24.792Z,7.50
2019-03-06T01:42:58.642Z,7.60
2019-03-06T01:45:27.985Z,7.50
2019-03-06T01:47:57.257Z,7.50
2019-03-06T01:50:26.155Z,7.50
2019-03-06T01:52:55.119Z,7.60
2019-03-06T01:55:24.273Z,7.60
2019-03-06T01:57:53.933Z,7.60
2019-03-06T02:00:23.005Z,7.60
2019-03-06T02:02:51.885Z,7.60
2019-03-06T02:05:22.285Z,7.60
2019-03-06T02:07:51.263Z,7.60
2019-03-06T02:10:20.646Z,7.70
2019-03-06T02:12:49.923Z,7.70
2019-03-06T02:15:19.860Z,7.70
2019-03-06T02:17:49.581Z,7.80
2019-03-06T02:20:19.244Z,7.80
2019-03-06T02:22:48.122Z,7.80
2019-03-06T02:25:16.967Z,7.80
2019-03-06T02:27:46.150Z,7.90
2019-03-06T02:30:17.351Z,7.90
2019-03-06T02:32:46.595Z,7.90
2019-03-06T02:35:15.811Z,7.90
2019-03-06T02:37:44.895Z,7.90
2019-03-06T02:40:14.378Z,7.90
2019-03-06T02:42:43.323Z,7.90
2019-03-06T02:45:13.828Z,7.90
2019-03-06T02:47:43.083Z,7.90
2019-03-06T02:50:12.815Z,7.80
2019-03-06T02:52:42.579Z,7.80
2019-03-06T02:55:16.393Z,7.80
2019-03-06T02:57:56.883Z,7.80
2019-03-06T03:00:43.704Z,7.80
2019-03-06T03:03:27.989Z,7.80
2019-03-06T03:08:37.987Z,7.80
2019-03-06T03:11:07.208Z,7.80
2019-03-06T03:13:38.203Z,7.80
2019-03-06T03:16:07.156Z,7.80
2019-03-06T03:18:36.414Z,7.80
2019-03-06T03:21:05.699Z,7.80
2019-03-06T03:23:34.631Z,7.70
2019-03-06T03:26:03.670Z,7.80
2019-03-06T03:28:32.925Z,7.80
2019-03-06T03:31:02.964Z,7.80
2019-03-06T03:33:32.326Z,7.80
2019-03-06T03:36:01.661Z,7.80
2019-03-06T03:38:30.771Z,7.80
2019-03-06T03:40:59.683Z,7.70
2019-03-06T03:43:28.813Z,7.80
2019-03-06T03:45:58.168Z,7.80
2019-03-06T03:48:27.093Z,7.70
2019-03-06T03:50:56.839Z,7.80
2019-03-06T03:53:28.364Z,7.80
2019-03-06T03:55:57.236Z,7.80
2019-03-06T03:58:26.155Z,7.80
2019-03-06T04:00:57.342Z,7.80
2019-03-06T04:03:26.300Z,7.80
2019-03-06T04:05:55.266Z,7.80
2019-03-06T04:08:24.168Z,7.80
2019-03-06T04:10:53.117Z,7.80
2019-03-06T04:13:22.395Z,7.80
2019-03-06T04:15:51.630Z,7.90
2019-03-06T04:18:20.904Z,7.90
2019-03-06T04:20:49.850Z,7.90
2019-03-06T04:23:20.804Z,7.90
2019-03-06T04:25:51.855Z,7.90
2019-03-06T04:28:21.009Z,7.90
2019-03-06T04:30:53.056Z,7.90
2019-03-06T04:33:21.960Z,7.90
2019-03-06T04:35:51.538Z,7.90
2019-03-06T04:38:20.449Z,7.90
2019-03-06T04:40:52.650Z,7.90
2019-03-06T04:43:21.818Z,8.00
2019-03-06T04:45:50.815Z,8.00
2019-03-06T04:48:23.410Z,8.00
2019-03-06T04:50:52.440Z,8.00
2019-03-06T04:53:21.418Z,8.00
2019-03-06T04:55:53.339Z,8.00
2019-03-06T04:58:23.444Z,8.00
2019-03-06T05:00:52.257Z,8.00
2019-03-06T05:03:21.151Z,8.00
2019-03-06T05:05:50.075Z,8.00
2019-03-06T05:08:19.343Z,8.00
2019-03-06T05:10:49.729Z,8.10
2019-03-06T05:13:18.609Z,8.10
2019-03-06T05:15:47.505Z,8.10
2019-03-06T05:18:31.469Z,8.20
2019-03-06T05:21:00.453Z,8.20
2019-03-06T05:23:29.624Z,8.20
2019-03-06T05:25:58.629Z,8.20
2019-03-06T05:28:27.526Z,8.20
2019-03-06T05:30:56.334Z,8.20
2019-03-06T05:33:28.873Z,8.20
2019-03-06T05:36:33.831Z,8.20
2019-03-06T05:39:10.520Z,8.20
2019-03-06T05:41:39.920Z,8.20
2019-03-06T05:44:08.891Z,8.20
2019-03-06T05:46:38.239Z,8.20
2019-03-06T05:49:07.145Z,8.20
2019-03-06T05:51:36.062Z,8.20
2019-03-06T05:54:06.117Z,8.20
2019-03-06T05:56:36.719Z,8.20
2019-03-06T05:59:05.709Z,8.20
2019-03-06T06:01:38.069Z,8.20
2019-03-06T06:04:07.002Z,8.20
2019-03-06T06:06:36.501Z,8.20
2019-03-06T06:09:07.625Z,8.20
2019-03-06T06:11:36.868Z,8.20
2019-03-06T06:14:06.237Z,8.30
2019-03-06T06:16:35.115Z,8.20
2019-03-06T06:19:04.097Z,8.20
2019-03-06T06:21:50.150Z,8.20
2019-03-06T06:24:22.700Z,8.20
2019-03-06T06:26:51.646Z,8.20
2019-03-06T06:31:57.255Z,8.20
2019-03-06T06:34:27.147Z,8.20
2019-03-06T06:36:57.012Z,8.30
2019-03-06T06:39:25.846Z,8.30
2019-03-06T06:41:54.856Z,8.30
2019-03-06T06:44:26.896Z,8.30
2019-03-06T06:46:56.722Z,8.30
2019-03-06T06:49:25.646Z,8.40
2019-03-06T06:52:26.282Z,8.40
2019-03-06T06:55:36.676Z,8.40
2019-03-06T06:58:44.014Z,8.40
2019-03-06T07:01:42.131Z,8.50
2019-03-06T07:04:53.415Z,8.50
2019-03-06T07:07:37.148Z,8.50
2019-03-06T07:10:14.012Z,8.50
2019-03-06T07:13:11.679Z,8.60
2019-03-06T07:15:50.127Z,8.60
2019-03-06T07:18:25.215Z,8.60
2019-03-06T07:21:16.930Z,8.60
2019-03-06T07:24:11.334Z,8.70
2019-03-06T07:27:03.964Z,8.70
2019-03-06T07:29:43.364Z,8.70
2019-03-06T07:32:32.421Z,8.80
2019-03-06T07:35:56.851Z,8.80
2019-03-06T07:38:28.130Z,8.90
2019-03-06T07:41:35.287Z,8.90
2019-03-06T07:44:16.118Z,8.90
2019-03-06T07:47:04.521Z,9.00
2019-03-06T07:49:52.007Z,9.00
2019-03-06T07:52:40.011Z,9.00
2019-03-06T07:55:34.630Z,9.00
2019-03-06T07:58:39.749Z,9.10
2019-03-06T08:01:16.830Z,9.10
2019-03-06T08:03:53.019Z,9.20
2019-03-06T08:06:22.094Z,9.10
2019-03-06T08:08:51.842Z,9.20
2019-03-06T08:11:49.460Z,9.30
2019-03-06T08:14:46.284Z,9.30
2019-03-06T08:17:29.793Z,9.30
2019-03-06T08:20:20.198Z,9.40
2019-03-06T08:23:11.253Z,9.40
2019-03-06T08:25:46.287Z,9.40
2019-03-06T08:28:17.091Z,9.50
2019-03-06T08:30:50.166Z,9.50
2019-03-06T08:33:19.135Z,9.50
2019-03-06T08:35:48.270Z,9.50
2019-03-06T08:38:17.178Z,9.50
2019-03-06T08:40:46.198Z,9.50
2019-03-06T08:43:23.095Z,9.50
2019-03-06T08:46:01.589Z,9.50
2019-03-06T08:48:46.474Z,9.50
2019-03-06T08:51:31.815Z,9.50
2019-03-06T08:54:19.581Z,9.50
2019-03-06T08:56:59.799Z,9.60
2019-03-06T08:59:54.152Z,9.60
2019-03-06T09:02:43.929Z,9.60
2019-03-06T09:05:21.285Z,9.60
2019-03-06T09:08:22.739Z,9.70
2019-03-06T09:11:09.066Z,9.80
2019-03-06T09:13:57.114Z,9.80
2019-03-06T09:16:54.575Z,9.80
2019-03-06T09:19:37.758Z,9.90
2019-03-06T09:22:30.239Z,10.00
2019-03-06T09:25:07.416Z,10.00
2019-03-06T09:27:56.185Z,10.00
2019-03-06T09:30:29.919Z,10.10
2019-03-06T09:33:23.787Z,10.10
2019-03-06T09:36:19.027Z,10.20
2019-03-06T09:39:09.987Z,10.20
2019-03-06T09:41:55.033Z,10.10
2019-03-06T09:44:35.497Z,10.10
2019-03-06T09:47:33.576Z,10.00
2019-03-06T09:50:14.586Z,10.00
2019-03-06T09:53:05.464Z,10.00
2019-03-06T09:55:52.638Z,9.90
2019-03-06T09:58:34.007Z,10.00
2019-03-06T10:01:40.008Z,10.00
2019-03-06T10:04:34.416Z,10.00
2019-03-06T10:07:34.561Z,9.90
2019-03-06T10:10:22.587Z,10.00
2019-03-06T10:13:06.426Z,9.90
2019-03-06T10:15:42.690Z,10.00
2019-03-06T10:18:20.066Z,10.00
2019-03-06T10:20:48.984Z,10.00
2019-03-06T10:23:18.022Z,9.90
2019-03-06T10:25:47.430Z,10.00
2019-03-06T10:28:16.688Z,10.00
2019-03-06T10:30:45.779Z,10.10
2019-03-06T10:33:14.799Z,10.10
2019-03-06T10:35:47.677Z,10.10
2019-03-06T10:38:17.249Z,10.10
2019-03-06T10:40:46.476Z,10.10
2019-03-06T10:43:15.499Z,10.10
2019-03-06T10:45:44.581Z,10.20
2019-03-06T10:48:16.162Z,10.10
2019-03-06T10:50:45.121Z,10.20
2019-03-06T10:53:14.444Z,10.20
2019-03-06T10:55:43.417Z,10.30
2019-03-06T10:58:12.920Z,10.30
2019-03-06T11:00:51.433Z,10.30
2019-03-06T11:03:23.604Z,10.40
2019-03-06T11:05:53.056Z,10.40
2019-03-06T11:08:22.687Z,10.40
2019-03-06T11:10:51.798Z,10.40
2019-03-06T11:13:20.775Z,10.40
2019-03-06T11:15:55.757Z,10.40
2019-03-06T11:18:21.118Z,10.40
2019-03-06T11:20:50.199Z,10.40
2019-03-06T11:23:19.246Z,10.40
2019-03-06T11:25:54.450Z,10.40
2019-03-06T11:28:23.742Z,10.40
2019-03-06T11:30:54.246Z,10.40
2019-03-06T11:33:23.798Z,10.40
2019-03-06T11:35:54.377Z,10.40
2019-03-06T11:38:24.133Z,10.40
2019-03-06T11:40:53.190Z,10.40
2019-03-06T11:43:22.199Z,10.40
2019-03-06T11:45:53.814Z,10.40
2019-03-06T11:48:22.971Z,10.30
2019-03-06T11:50:52.591Z,10.30
2019-03-06T11:53:21.667Z,10.30
2019-03-06T11:55:50.682Z,10.20
2019-03-06T11:58:19.953Z,10.20
2019-03-06T12:00:49.348Z,10.10
2019-03-06T12:03:20.344Z,10.10
2019-03-06T12:05:50.119Z,10.10
2019-03-06T12:08:19.578Z,10.20
2019-03-06T12:10:49.315Z,10.10
2019-03-06T12:13:19.093Z,10.20
2019-03-06T12:15:49.205Z,10.20
2019-03-06T12:18:19.082Z,10.20
2019-03-06T12:20:48.236Z,10.20
2019-03-06T12:23:17.711Z,10.20
2019-03-06T12:25:47.597Z,10.20
2019-03-06T12:28:16.850Z,10.30
2019-03-06T12:30:49.080Z,10.40
2019-03-06T12:33:27.066Z,10.40
2019-03-06T12:35:56.054Z,10.40
2019-03-06T12:38:25.092Z,10.40
2019-03-06T12:40:54.068Z,10.40
2019-03-06T12:43:23.349Z,10.40
2019-03-06T12:49:08.595Z,10.30
2019-03-06T12:51:37.899Z,10.30
2019-03-06T12:54:09.653Z,10.30
2019-03-06T12:56:38.882Z,10.30
2019-03-06T12:59:12.289Z,10.20
2019-03-06T13:01:41.331Z,10.20
2019-03-06T13:04:10.254Z,10.20
2019-03-06T13:06:39.259Z,10.20
2019-03-06T13:09:16.661Z,10.20
2019-03-06T13:11:45.724Z,10.20
2019-03-06T13:14:15.527Z,10.20
2019-03-06T13:16:44.752Z,10.20
2019-03-06T13:19:14.245Z,10.20
2019-03-06T13:21:43.214Z,10.20
2019-03-06T13:24:13.029Z,10.20
2019-03-06T13:26:42.307Z,10.20
2019-03-06T13:29:11.591Z,10.20
2019-03-06T13:31:40.588Z,10.20
2019-03-06T13:34:39.625Z,10.20
2019-03-06T13:37:09.713Z,10.20
2019-03-06T13:39:39.967Z,10.10
2019-03-06T13:42:09.291Z,10.20
2019-03-06T13:44:41.145Z,10.20
2019-03-06T13:47:12.669Z,10.20
2019-03-06T13:49:43.811Z,10.20
2019-03-06T13:52:14.589Z,10.20
2019-03-06T13:54:43.706Z,10.30
2019-03-06T13:57:12.785Z,10.30
2019-03-06T13:59:45.242Z,10.30
2019-03-06T14:02:14.271Z,10.30
2019-03-06T14:04:43.622Z,10.30
2019-03-06T14:07:12.923Z,10.30
2019-03-06T14:09:41.981Z,10.30
2019-03-06T14:12:11.712Z,10.30
2019-03-06T14:17:17.120Z,10.30
2019-03-06T14:19:46.464Z,10.30
2019-03-06T14:22:16.654Z,10.30
2019-03-06T14:24:45.889Z,10.30
2019-03-06T14:27:15.489Z,10.30
2019-03-06T14:29:45.606Z,10.40
2019-03-06T14:32:15.246Z,10.40
2019-03-06T14:34:47.021Z,10.40
2019-03-06T14:37:16.408Z,10.40
2019-03-06T14:39:45.512Z,10.40
2019-03-06T14:42:14.905Z,10.50
2019-03-06T14:44:44.797Z,10.50
2019-03-06T14:47:16.355Z,10.60
2019-03-06T14:49:45.349Z,10.60
2019-03-06T14:52:14.914Z,10.60
2019-03-06T14:54:46.917Z,10.60
2019-03-06T14:57:15.894Z,10.60
2019-03-06T14:59:44.783Z,10.60
2019-03-06T15:02:14.223Z,10.60
2019-03-06T15:04:43.237Z,10.70
2019-03-06T15:07:13.347Z,10.60
2019-03-06T15:09:42.332Z,10.60
2019-03-06T15:12:12.682Z,10.60
2019-03-06T15:14:48.391Z,10.60
2019-03-06T15:17:17.785Z,10.60
2019-03-06T15:19:47.091Z,10.60
2019-03-06T15:22:16.886Z,10.70
2019-03-06T15:24:45.831Z,10.70
2019-03-06T15:27:15.818Z,10.70
2019-03-06T15:29:49.121Z,10.70
2019-03-06T15:32:19.037Z,10.70
2019-03-06T15:34:49.187Z,10.70
2019-03-06T15:37:18.849Z,10.70
2019-03-06T15:39:50.346Z,10.70
2019-03-06T15:42:20.407Z,10.70
2019-03-06T15:44:50.237Z,10.70
2019-03-06T15:47:20.127Z,10.70
2019-03-06T15:49:49.614Z,10.70
2019-03-06T15:52:19.049Z,10.70
2019-03-06T15:54:48.603Z,10.70
2019-03-06T15:57:18.267Z,10.80
2019-03-06T15:59:47.550Z,10.70
2019-03-06T16:02:18.144Z,10.70
2019-03-06T16:04:48.064Z,10.80
2019-03-06T16:07:17.855Z,10.70
2019-03-06T16:09:47.181Z,10.70
2019-03-06T16:12:17.017Z,10.70
2019-03-06T16:14:49.712Z,10.60
2019-03-06T16:17:19.010Z,10.60
2019-03-06T16:19:49.505Z,10.60
2019-03-06T16:22:19.237Z,10.60
2019-03-06T16:24:48.567Z,10.60
2019-03-06T16:27:17.647Z,10.60
2019-03-06T16:29:46.870Z,10.50
2019-03-06T16:32:19.504Z,10.50
2019-03-06T16:34:49.243Z,10.50
2019-03-06T16:37:19.429Z,10.50
2019-03-06T16:39:48.845Z,10.40
2019-03-06T16:42:17.718Z,10.40
2019-03-06T16:44:48.006Z,10.40
2019-03-06T16:47:17.309Z,10.40
2019-03-06T16:49:46.431Z,10.30
2019-03-06T16:52:15.527Z,10.30
2019-03-06T16:54:45.955Z,10.30
2019-03-06T16:57:15.116Z,10.30
2019-03-06T16:59:45.906Z,10.30
2019-03-06T17:02:15.919Z,10.20
2019-03-06T17:04:45.121Z,10.20
2019-03-06T17:07:14.165Z,10.20
2019-03-06T17:09:43.508Z,10.20
2019-03-06T17:12:13.757Z,10.10
2019-03-06T17:14:43.146Z,10.10
2019-03-06T17:17:12.224Z,10.10
2019-03-06T17:19:44.432Z,10.10
2019-03-06T17:22:13.785Z,10.10
2019-03-06T17:24:42.828Z,10.10
2019-03-06T17:27:12.061Z,10.10
2019-03-06T17:29:41.632Z,10.10
2019-03-06T17:32:11.077Z,10.00
2019-03-06T17:34:41.526Z,10.00
2019-03-06T17:37:10.650Z,10.00
2019-03-06T17:39:39.618Z,9.90
2019-03-06T17:42:08.697Z,9.90
2019-03-06T17:44:37.811Z,9.90
2019-03-06T17:47:06.859Z,9.90
2019-03-06T17:49:35.964Z,9.80
2019-03-06T17:52:04.980Z,9.80
2019-03-06T17:54:38.642Z,9.80
2019-03-06T17:57:08.027Z,9.80
2019-03-06T17:59:37.495Z,9.80
2019-03-06T18:02:06.624Z,9.80
2019-03-06T18:04:35.598Z,9.80
2019-03-06T18:07:06.194Z,9.80
2019-03-06T18:09:36.078Z,9.70
2019-03-06T18:12:05.626Z,9.70
2019-03-06T18:14:34.902Z,9.70
2019-03-06T18:17:03.992Z,9.70
2019-03-06T18:19:33.383Z,9.80
2019-03-06T18:22:05.573Z,9.80
2019-03-06T18:24:36.268Z,9.80
2019-03-06T18:29:44.634Z,9.80
2019-03-06T18:32:13.879Z,9.80
2019-03-06T18:34:43.563Z,9.80
2019-03-06T18:37:12.972Z,9.80
2019-03-06T18:39:44.561Z,9.80
2019-03-06T18:42:14.186Z,9.80
2019-03-06T18:44:45.359Z,9.80
2019-03-06T18:47:14.047Z,9.90
2019-03-06T18:49:43.076Z,9.90
2019-03-06T18:52:18.123Z,9.90
2019-03-06T18:54:49.207Z,9.90
2019-03-06T18:57:20.638Z,10.00
2019-03-06T18:59:49.923Z,10.00
2019-03-06T19:02:20.056Z,10.10
2019-03-06T19:04:49.621Z,10.20
2019-03-06T19:07:18.744Z,10.20
2019-03-06T19:09:52.053Z,10.30
2019-03-06T19:12:21.145Z,10.40
2019-03-06T19:14:55.808Z,10.40
2019-03-06T19:17:24.874Z,10.40
2019-03-06T19:20:00.553Z,10.50
2019-03-06T19:22:31.163Z,10.50
2019-03-06T19:25:00.673Z,10.50
2019-03-06T19:27:30.077Z,10.60
2019-03-06T19:30:01.147Z,10.60
2019-03-06T19:32:30.154Z,10.50
2019-03-06T19:34:59.159Z,10.60
2019-03-06T19:37:31.305Z,10.50
2019-03-06T19:40:00.594Z,10.50
2019-03-06T19:42:30.790Z,10.50
2019-03-06T19:45:03.261Z,10.50
2019-03-06T19:47:33.051Z,10.40
2019-03-06T19:50:02.195Z,10.40
2019-03-06T19:52:31.296Z,10.40
2019-03-06T19:55:04.234Z,10.40
2019-03-06T19:57:50.844Z,10.40
2019-03-06T20:00:20.900Z,10.40
2019-03-06T20:02:50.375Z,10.40
2019-03-06T20:05:19.932Z,10.40
2019-03-06T20:07:52.200Z,10.40
2019-03-06T20:10:24.447Z,10.40
2019-03-06T20:12:53.585Z,10.40
2019-03-06T20:15:22.868Z,10.30
2019-03-06T20:17:52.736Z,10.30
2019-03-06T20:20:22.213Z,10.30
2019-03-06T20:22:51.451Z,10.30
2019-03-06T20:25:22.618Z,10.30
2019-03-06T20:27:55.355Z,10.30
2019-03-06T20:30:24.963Z,10.30
2019-03-06T20:32:54.039Z,10.30
2019-03-06T20:35:24.228Z,10.30
2019-03-06T20:37:53.507Z,10.30
2019-03-06T20:40:22.817Z,10.30
2019-03-06T20:42:51.864Z,10.30
2019-03-06T20:45:21.606Z,10.30
2019-03-06T20:47:51.183Z,10.20
2019-03-06T20:50:21.621Z,10.20
2019-03-06T20:52:51.170Z,10.30
2019-03-06T20:55:20.565Z,10.30
2019-03-06T20:57:49.899Z,10.30
2019-03-06T21:00:21.311Z,10.30
2019-03-06T21:02:52.635Z,10.30
2019-03-06T21:05:24.829Z,10.30
2019-03-06T21:07:53.933Z,10.30
2019-03-06T21:10:29.093Z,10.30
2019-03-06T21:12:57.374Z,10.30
2019-03-06T21:15:27.011Z,10.30
2019-03-06T21:17:56.019Z,10.40
2019-03-06T21:20:25.322Z,10.30
2019-03-06T21:22:57.765Z,10.30
2019-03-06T21:25:30.016Z,10.30
2019-03-06T21:27:59.248Z,10.40
2019-03-06T21:30:31.514Z,10.30
2019-03-06T21:35:35.950Z,10.30
2019-03-06T21:38:05.093Z,10.20
2019-03-06T21:40:34.216Z,10.20
2019-03-06T21:43:03.718Z,10.20
2019-03-06T21:45:33.821Z,10.20
2019-03-06T21:48:03.170Z,10.20
2019-03-06T21:50:32.203Z,10.20
2019-03-06T21:53:01.238Z,10.20
2019-03-06T21:55:32.897Z,10.20
2019-03-06T21:58:02.362Z,10.20
2019-03-06T22:00:31.733Z,10.20
2019-03-06T22:03:00.894Z,10.20
2019-03-06T22:05:32.733Z,10.20
2019-03-06T22:08:02.392Z,10.10
2019-03-06T22:10:31.789Z,10.10
2019-03-06T22:13:02.001Z,10.10
2019-03-06T22:15:33.025Z,10.10
2019-03-06T22:18:01.983Z,10.10
2019-03-06T22:20:34.889Z,10.00
2019-03-06T22:23:03.973Z,10.00
2019-03-06T22:25:36.070Z,10.00
2019-03-06T22:28:05.132Z,10.00
2019-03-06T22:30:34.467Z,9.90
2019-03-06T22:33:05.415Z,9.90
2019-03-06T22:35:36.917Z,9.90
2019-03-06T22:38:06.550Z,9.90
2019-03-06T22:40:35.839Z,9.90
2019-03-06T22:43:07.572Z,9.80
2019-03-06T22:45:37.427Z,9.80
2019-03-06T22:48:06.896Z,9.80
2019-03-06T22:50:36.485Z,9.70
2019-03-06T22:53:05.948Z,9.70
2019-03-06T22:55:35.116Z,9.60
2019-03-06T22:58:10.051Z,9.60
2019-03-06T23:00:52.898Z,9.60
2019-03-06T23:03:22.502Z,9.60
2019-03-06T23:05:51.536Z,9.60
2019-03-06T23:08:21.428Z,9.60
2019-03-06T23:10:52.211Z,9.60
2019-03-06T23:13:23.501Z,9.70
2019-03-06T23:15:52.321Z,9.70
2019-03-06T23:18:21.798Z,9.60
2019-03-06T23:20:54.031Z,9.70
2019-03-06T23:23:23.461Z,9.70
2019-03-06T23:25:52.414Z,9.70
2019-03-06T23:28:23.922Z,9.70
2019-03-06T23:30:53.214Z,9.70
2019-03-06T23:33:25.646Z,9.70
2019-03-06T23:35:54.852Z,9.70
2019-03-06T23:38:24.174Z,9.70
2019-03-06T23:40:53.547Z,9.70
2019-03-06T23:43:23.204Z,9.70
2019-03-06T23:45:52.129Z,9.80
2019-03-06T23:48:21.394Z,9.80
2019-03-06T23:50:50.577Z,9.80
2019-03-06T23:53:41.330Z,9.80
2019-03-06T23:56:11.324Z,9.80
2019-03-06T23:58:43.760Z,9.80
